createdAt,value
2018-06-19T00:00:02.536Z,14.6
2018-06-19T00:15:02.834Z,14.4
2018-06-19T00:30:03.290Z,14.3
2018-06-19T00:45:02.707Z,14.4
2018-06-19T01:00:02.983Z,14.2
2018-06-19T01:15:02.343Z,14.5
2018-06-19T01:30:02.855Z,14.4
2018-06-19T01:45:03.191Z,14.2
2018-06-19T02:00:02.480Z,14.1
2018-06-19T02:15:02.838Z,13.9
2018-06-19T02:30:03.331Z,13.7
2018-06-19T02:45:02.676Z,13.7
2018-06-19T03:00:02.967Z,13.6
2018-06-19T03:15:02.641Z,13.8
2018-06-19T03:30:03.042Z,13.9
2018-06-19T03:45:02.476Z,13.6
2018-06-19T04:00:02.783Z,14.2
2018-06-19T04:15:03.096Z,14.3
2018-06-19T04:30:02.509Z,14.3
2018-06-19T04:45:02.840Z,14.8
2018-06-19T05:00:03.233Z,14.9
2018-06-19T05:15:02.581Z,15.5
2018-06-19T05:30:03.069Z,15.8
2018-06-19T05:45:02.518Z,16.2
2018-06-19T06:00:03.043Z,16.6
2018-06-19T06:15:02.380Z,17
2018-06-19T06:30:02.870Z,17.6
2018-06-19T06:45:03.195Z,18.2
2018-06-19T07:00:02.569Z,18.6
2018-06-19T07:15:02.847Z,19.1
2018-06-19T07:30:03.315Z,19.1
2018-06-19T07:45:02.636Z,19.8
2018-06-19T08:00:02.970Z,20.4
2018-06-19T08:15:02.291Z,20.8
2018-06-19T08:30:02.682Z,21.5
2018-06-19T08:45:02.973Z,22.1
2018-06-19T09:00:02.328Z,22.4
2018-06-19T09:15:02.644Z,22.9
2018-06-19T09:30:03.077Z,22.9
2018-06-19T09:45:02.460Z,23.2
2018-06-19T10:00:02.753Z,22.9
2018-06-19T10:15:03.102Z,24.2
2018-06-19T10:30:02.514Z,23.7
2018-06-19T10:45:02.776Z,23.2
2018-06-19T11:00:03.139Z,23.6
2018-06-19T11:15:02.447Z,22.4
2018-06-19T11:30:02.866Z,22.6
2018-06-19T11:45:03.216Z,23.6
2018-06-19T12:00:02.521Z,22.6
2018-06-19T12:15:02.838Z,23.1
2018-06-19T12:30:03.324Z,23.4
2018-06-19T12:45:02.679Z,23.5
2018-06-19T13:00:02.984Z,23.3
2018-06-19T13:15:02.296Z,23.8
2018-06-19T13:30:02.674Z,24.6
2018-06-19T13:45:02.971Z,24.8
2018-06-19T14:00:02.326Z,24.2
2018-06-19T14:15:02.676Z,24.1
2018-06-19T14:30:03.079Z,23.8
2018-06-19T14:45:02.451Z,23.6
2018-06-19T15:00:02.858Z,23.6
2018-06-19T15:15:03.185Z,23.4
2018-06-19T15:30:02.649Z,23.8
2018-06-19T15:45:02.956Z,24
2018-06-19T16:00:02.293Z,23.5
2018-06-19T16:15:02.588Z,23.6
2018-06-19T16:30:02.988Z,23.3
2018-06-19T16:45:02.343Z,23.1
2018-06-19T17:00:02.756Z,23.1
2018-06-19T17:15:03.096Z,23
2018-06-19T17:30:02.606Z,22.9
2018-06-19T17:45:02.994Z,22.8
2018-06-19T18:00:02.323Z,22.8
2018-06-19T18:15:02.706Z,22.2
2018-06-19T18:30:03.120Z,21.8
2018-06-19T18:45:02.458Z,20.8
2018-06-19T19:00:02.784Z,20.2
2018-06-19T19:15:03.092Z,19.8
2018-06-19T19:30:02.457Z,19.4
2018-06-19T19:45:02.888Z,19.2
2018-06-19T20:00:03.213Z,18.9
2018-06-19T20:15:02.573Z,18.8
2018-06-19T20:30:02.964Z,18.9
2018-06-19T20:45:02.274Z,18.8
2018-06-19T21:00:02.846Z,18
2018-06-19T21:15:03.181Z,18.2
2018-06-19T21:30:02.829Z,18.7
2018-06-19T21:45:03.561Z,18.1
2018-06-19T22:00:03.705Z,18.2
2018-06-19T22:15:03.149Z,17.9
2018-06-19T22:30:02.684Z,18.2
2018-06-19T22:45:03.060Z,18.1
2018-06-19T23:00:02.413Z,17.8
2018-06-19T23:15:02.772Z,17.6
2018-06-19T23:30:03.247Z,17.7
2018-06-19T23:45:02.559Z,17.5
